Αρχική σελίδα
METAR-TAF:

METAR-TAF

Αεροδρόμια :

Eagle, Αλάσκα, Ηνωμένες Πολιτείες Αμερικής

γεωγραφικό πλάτος: 64-46-35N, γεωγραφικό μήκος: 141-09-03W, υψόμετρο: 268 μ

Παρών καιρός

Η αναφορά έγινε 8 ώρες και 2 λεπτά πριν, στις 04:53 UTC
Άνεμος 9 kt από Α/NA με ριπές μέχρι 15 kt, μεταβλητός μεταξύ Α και Ν/NA
Θερμοκρασία -6°C
Υγρασία 62%
Πίεση 1005 hPa
Ορατότητα: 16.1 χλμ
Καθαρός ουρανός

METAR: PAEG 100453Z AUTO 12009G15KT 090V150 10SM CLR M06/M12 A2967 RMK SLP065 T10561117 TSNO VIA AUTODIAL

Χρόνος: 03:55 (12:55 UTC)


TAF: λείπει

Μετεωρολογικές αναφορές και προγνώσεις για περισσότερα από 4000 αεροδρόμια (δελτία METAR και TAF).

Οι διαθέσιμοι σταθμοί απεικονίζονται στο χάρτη με κίτρινες και κόκκινες κουκκίδες.

Μετακινήστε το ποντίκι πάνω από τις κουκκίδες για να δείτε το όνομα του σταθμού.

Στη συνέχεια, κάντε κλικ για να δείτε τις μετεωρολογικές αναφορές και τις προγνώσεις καιρού.

Για να αλλάξετε το χάρτη: κάντε κλικ στα πράσινα κουμπιά με τον μαύρο σταυρό για να ζουμάρετε, στο πράσινο κουμπί με την παύλα για να αφαιρέσετε το ζουμ ή στα πράσινα βέλη για να αντιπαραβάλλετε χάρτες.


METAR-TAF: